Time;durP1;ratioP1;P1;durP2;ratioP2;P2;SDS_P1;SDS_P2;PMS_P1;PMS_P2;Temp;Humidity;BMP_temperature;BMP_pressure;BME280_temperature;BME280_humidity;BME280_pressure;Samples;Min_cycle;Max_cycle;Signal;HPM_P1;HPM_P2
2024/03/22 00:00:53;;;;;;;1999.90;999.90;;;;;;;11.10;100.00;102018.38;10443583;28;20052;-72
2024/03/22 00:05:54;;;;;;;1999.90;999.90;;;;;;;11.11;100.00;102012.22;10442371;28;20049;-72
2024/03/22 00:10:56;;;;;;;1999.90;999.90;;;;;;;11.06;100.00;102014.16;10441980;28;20064;-72
2024/03/22 00:15:57;;;;;;;1999.90;999.90;;;;;;;11.08;100.00;102009.75;10458973;28;20402;-73
2024/03/22 00:20:59;;;;;;;1999.90;999.90;;;;;;;11.19;100.00;102007.53;10458454;28;20072;-73
2024/03/22 00:26:00;;;;;;;1999.90;999.90;;;;;;;11.05;100.00;101992.34;10458612;28;20049;-73
2024/03/22 00:31:02;;;;;;;1999.90;999.90;;;;;;;11.08;100.00;101983.53;10442470;28;20060;-73
2024/03/22 00:36:04;;;;;;;1999.90;999.90;;;;;;;11.13;100.00;101971.94;10441245;28;20045;-73
2024/03/22 00:41:05;;;;;;;1999.90;999.90;;;;;;;11.19;100.00;101962.97;10441530;28;20107;-72
2024/03/22 00:46:07;;;;;;;1999.90;999.90;;;;;;;11.07;100.00;101947.75;10441313;28;20064;-72
2024/03/22 00:51:09;;;;;;;1999.90;999.90;;;;;;;11.22;100.00;101939.25;10440803;28;20494;-72
2024/03/22 00:56:10;;;;;;;1999.90;999.90;;;;;;;11.24;100.00;101928.69;10440499;28;20505;-72
2024/03/22 01:01:12;;;;;;;1999.90;999.90;;;;;;;11.24;100.00;101912.97;10457735;28;20059;-73
2024/03/22 01:06:14;;;;;;;1999.90;999.90;;;;;;;11.29;100.00;101917.09;10456624;28;20045;-72
2024/03/22 01:11:16;;;;;;;1999.90;999.90;;;;;;;11.32;100.00;101903.00;10456658;28;20057;-72
2024/03/22 01:16:17;;;;;;;1999.90;999.90;;;;;;;11.36;100.00;101894.06;10457455;28;20102;-73
2024/03/22 01:21:19;;;;;;;1999.90;999.90;;;;;;;11.37;100.00;101902.81;10455785;28;20433;-73
2024/03/22 01:26:20;;;;;;;1999.90;999.90;;;;;;;11.41;100.00;101886.03;10540603;22;20048;-73
2024/03/22 01:31:22;;;;;;;1999.90;999.90;;;;;;;11.36;100.00;101891.47;10522101;28;20048;-73
2024/03/22 01:36:23;;;;;;;1999.90;999.90;;;;;;;11.32;100.00;101880.25;10538813;28;20071;-72
2024/03/22 01:41:25;;;;;;;1999.90;999.90;;;;;;;11.40;100.00;101864.19;10539424;28;20056;-72
2024/03/22 01:46:26;;;;;;;1999.90;999.90;;;;;;;11.43;100.00;101863.19;10539244;28;20048;-73
2024/03/22 01:51:27;;;;;;;1999.90;999.90;;;;;;;11.38;100.00;101862.53;10538729;28;20052;-72
2024/03/22 01:56:29;;;;;;;1999.90;999.90;;;;;;;11.38;100.00;101863.41;10521315;28;20052;-72
2024/03/22 02:01:31;;;;;;;1999.90;999.90;;;;;;;11.40;100.00;101868.56;10538522;28;20056;-73
2024/03/22 02:06:33;;;;;;;1999.90;999.90;;;;;;;11.38;100.00;101859.94;10521473;28;20101;-72
2024/03/22 02:11:35;;;;;;;1999.90;999.90;;;;;;;11.38;100.00;101858.19;10520490;28;20557;-72
2024/03/22 02:16:39;;;;;;;1999.90;999.90;;;;;;;11.28;100.00;101862.09;10520706;28;20464;-72
2024/03/22 02:21:40;;;;;;;1999.90;999.90;;;;;;;11.36;100.00;101844.25;10504104;28;20059;-72
2024/03/22 02:26:42;;;;;;;1999.90;999.90;;;;;;;11.34;100.00;101839.06;10538232;28;20048;-72
2024/03/22 02:31:43;;;;;;;1999.90;999.90;;;;;;;11.39;100.00;101830.19;10524952;28;20413;-72
2024/03/22 02:36:45;;;;;;;1999.90;999.90;;;;;;;11.47;100.00;101825.44;10528713;28;20480;-72
2024/03/22 02:41:46;;;;;;;1999.90;999.90;;;;;;;11.43;100.00;101822.13;10529541;28;20056;-72
2024/03/22 02:46:48;;;;;;;1999.90;999.90;;;;;;;11.37;100.00;101814.50;10545780;28;20052;-72
2024/03/22 02:51:49;;;;;;;1999.90;999.90;;;;;;;11.33;100.00;101805.94;10545927;28;20056;-72
2024/03/22 02:56:51;;;;;;;1999.90;999.90;;;;;;;11.30;100.00;101789.50;10545680;28;20060;-73
2024/03/22 03:01:52;;;;;;;1999.90;999.90;;;;;;;11.37;100.00;101785.66;10528613;28;20060;-72
2024/03/22 03:06:53;;;;;;;1999.90;999.90;;;;;;;11.32;100.00;101778.00;10544695;28;20048;-72
2024/03/22 03:11:55;;;;;;;1999.90;999.90;;;;;;;11.20;100.00;101781.19;10528291;28;20059;-73
2024/03/22 03:16:56;;;;;;;1999.90;999.90;;;;;;;11.24;100.00;101768.78;10527926;28;20063;-72
2024/03/22 03:21:58;;;;;;;1999.90;999.90;;;;;;;11.43;100.00;101760.94;10527869;28;20089;-72
2024/03/22 03:26:59;;;;;;;1999.90;999.90;;;;;;;11.26;100.00;101753.81;10544248;28;20048;-72
2024/03/22 03:32:00;;;;;;;1999.90;999.90;;;;;;;11.18;100.00;101754.19;10527532;28;20059;-73
2024/03/22 03:37:02;;;;;;;1999.90;999.90;;;;;;;11.30;100.00;101745.75;10527075;28;20051;-72
2024/03/22 03:42:03;;;;;;;1999.90;999.90;;;;;;;11.13;100.00;101732.59;10525891;28;20066;-72
2024/03/22 03:47:05;;;;;;;1999.90;999.90;;;;;;;11.21;100.00;101725.19;10509703;28;20083;-72
2024/03/22 03:52:06;;;;;;;1999.90;999.90;;;;;;;11.20;100.00;101725.28;10526520;28;20122;-73
2024/03/22 03:57:07;;;;;;;1999.90;999.90;;;;;;;11.09;100.00;101718.72;10543909;28;20063;-72
2024/03/22 04:02:09;;;;;;;1999.90;999.90;;;;;;;11.11;100.00;101719.53;10526241;28;20055;-72
2024/03/22 04:07:10;;;;;;;1999.90;999.90;;;;;;;11.16;100.00;101706.22;10526151;28;20047;-73
2024/03/22 04:12:12;;;;;;;1999.90;999.90;;;;;;;11.10;100.00;101706.50;10542752;28;20056;-72
2024/03/22 04:17:13;;;;;;;1999.90;999.90;;;;;;;11.11;100.00;101701.19;10525980;28;20052;-72
2024/03/22 04:22:15;;;;;;;1999.90;999.90;;;;;;;11.05;100.00;101692.75;10542484;28;20060;-72
2024/03/22 04:27:16;;;;;;;1999.90;999.90;;;;;;;10.93;100.00;101687.16;10525518;28;20052;-72
2024/03/22 04:32:18;;;;;;;1999.90;999.90;;;;;;;11.13;100.00;101696.72;10524714;28;20048;-73
2024/03/22 04:37:19;;;;;;;1999.90;999.90;;;;;;;11.03;100.00;101705.94;10524196;28;20040;-72
2024/03/22 04:42:21;;;;;;;1999.90;999.90;;;;;;;11.02;100.00;101692.91;10525223;28;20052;-72
2024/03/22 04:47:23;;;;;;;1999.90;999.90;;;;;;;11.10;100.00;101688.16;10540545;28;20048;-73
2024/03/22 04:52:24;;;;;;;1999.90;999.90;;;;;;;11.20;100.00;101685.97;10540572;28;20085;-73
2024/03/22 04:57:25;;;;;;;1999.90;999.90;;;;;;;10.97;100.00;101683.44;10524145;28;20044;-73
2024/03/22 05:02:27;;;;;;;1999.90;999.90;;;;;;;10.97;100.00;101674.75;10541004;28;20052;-73
2024/03/22 05:07:28;;;;;;;1999.90;999.90;;;;;;;10.87;100.00;101684.78;10540596;28;20044;-72
2024/03/22 05:12:30;;;;;;;1999.90;999.90;;;;;;;10.94;100.00;101673.13;10540526;28;20060;-73
2024/03/22 05:17:32;;;;;;;1999.90;999.90;;;;;;;10.90;100.00;101668.94;10523407;28;20048;-72
2024/03/22 05:22:33;;;;;;;1999.90;999.90;;;;;;;10.80;100.00;101667.66;10522687;28;20060;-72
2024/03/22 05:27:35;;;;;;;1999.90;999.90;;;;;;;10.85;100.00;101659.59;10539436;28;20044;-72
2024/03/22 05:32:37;;;;;;;1999.90;999.90;;;;;;;10.74;100.00;101662.66;10522931;28;20071;-72
2024/03/22 05:37:38;;;;;;;1999.90;999.90;;;;;;;10.72;100.00;101659.28;10522556;28;20098;-72
2024/03/22 05:42:40;;;;;;;1999.90;999.90;;;;;;;10.81;100.00;101655.38;10539619;28;20101;-73
2024/03/22 05:47:41;;;;;;;1999.90;999.90;;;;;;;10.88;100.00;101660.31;10521598;28;20433;-72
2024/03/22 05:52:43;;;;;;;1999.90;999.90;;;;;;;10.69;100.00;101660.28;10538213;28;20052;-73
2024/03/22 05:57:44;;;;;;;1999.90;999.90;;;;;;;10.70;100.00;101664.59;10521410;28;20386;-72
2024/03/22 06:02:46;;;;;;;1999.90;999.90;;;;;;;10.71;100.00;101654.97;10521647;28;20405;-73
2024/03/22 06:07:47;;;;;;;1999.90;999.90;;;;;;;10.71;100.00;101653.19;10520800;28;20503;-72
2024/03/22 06:12:49;;;;;;;1999.90;999.90;;;;;;;10.70;100.00;101656.72;10521037;28;20052;-72
2024/03/22 06:17:51;;;;;;;1999.90;999.90;;;;;;;10.76;100.00;101648.59;10521194;28;20412;-73
2024/03/22 06:22:52;;;;;;;1999.90;999.90;;;;;;;10.68;100.00;101655.94;10521510;28;20059;-72
2024/03/22 06:27:54;;;;;;;1999.90;999.90;;;;;;;10.74;100.00;101649.56;10537435;28;20048;-73
2024/03/22 06:32:55;;;;;;;1999.90;999.90;;;;;;;10.72;100.00;101646.19;10537462;28;20519;-72
2024/03/22 06:37:57;;;;;;;1999.90;999.90;;;;;;;10.80;100.00;101640.63;10538370;28;20059;-72
2024/03/22 06:42:58;;;;;;;1999.90;999.90;;;;;;;10.88;100.00;101638.50;10537271;28;20164;-72
2024/03/22 06:48:00;;;;;;;1999.90;999.90;;;;;;;10.72;100.00;101631.31;10520797;28;20107;-72
2024/03/22 06:53:02;;;;;;;1999.90;999.90;;;;;;;10.83;100.00;101632.63;10537577;28;20397;-72
2024/03/22 06:58:04;;;;;;;1999.90;999.90;;;;;;;10.92;100.00;101629.56;10537225;28;20067;-72
2024/03/22 07:03:05;;;;;;;1999.90;999.90;;;;;;;11.13;100.00;101630.38;10520974;28;20059;-73
2024/03/22 07:08:07;;;;;;;1999.90;999.90;;;;;;;10.85;100.00;101629.00;10536971;28;20105;-72
2024/03/22 07:13:08;;;;;;;1999.90;999.90;;;;;;;11.00;100.00;101635.31;10519850;28;20492;-72
2024/03/22 07:18:10;;;;;;;1999.90;999.90;;;;;;;10.91;100.00;101636.59;10541964;28;20044;-72
2024/03/22 07:23:11;;;;;;;1999.90;999.90;;;;;;;11.07;100.00;101646.38;10528101;28;20109;-73
2024/03/22 07:28:13;;;;;;;1999.90;999.90;;;;;;;11.09;100.00;101640.13;10543931;28;20048;-72
2024/03/22 07:33:16;;;;;;;1999.90;999.90;;;;;;;11.20;100.00;101639.63;10527461;28;20055;-72
2024/03/22 07:38:18;;;;;;;1999.90;999.90;;;;;;;11.44;98.74;101635.00;10526714;28;20055;-73
2024/03/22 07:43:19;;;;;;;1999.90;999.90;;;;;;;11.43;97.54;101643.81;10544553;28;20051;-73
2024/03/22 07:48:21;;;;;;;1999.90;999.90;;;;;;;11.60;96.30;101635.13;10525844;28;20047;-73
2024/03/22 07:53:23;;;;;;;1999.90;999.90;;;;;;;11.84;93.60;101625.19;10526815;28;20052;-73
2024/03/22 07:58:24;;;;;;;1999.90;999.90;;;;;;;11.31;94.34;101628.63;10543465;28;20059;-72
2024/03/22 08:03:26;;;;;;;1999.90;999.90;;;;;;;11.37;93.78;101633.59;10542528;28;20055;-65
2024/03/22 08:08:27;;;;;;;1999.90;999.90;;;;;;;11.57;94.49;101635.28;10542809;28;20052;-65
2024/03/22 08:13:28;;;;;;;1999.90;999.90;;;;;;;12.00;93.30;101625.31;10542918;28;20056;-72
2024/03/22 08:18:30;;;;;;;1999.90;999.90;;;;;;;11.89;91.63;101635.47;10525526;28;20048;-72
2024/03/22 08:23:31;;;;;;;1999.90;999.90;;;;;;;11.66;93.50;101639.22;10541297;28;20067;-72
2024/03/22 08:28:33;;;;;;;1999.90;999.90;;;;;;;11.75;93.20;101635.28;10540652;28;20071;-72
2024/03/22 08:33:34;;;;;;;1999.90;999.90;;;;;;;11.82;91.43;101632.31;10542487;28;20051;-73
2024/03/22 08:38:36;;;;;;;1999.90;999.90;;;;;;;12.15;92.21;101625.47;10540932;28;20462;-72
2024/03/22 08:43:37;;;;;;;1999.90;999.90;;;;;;;11.90;90.88;101618.78;10540877;28;20059;-73
2024/03/22 08:48:39;;;;;;;1999.90;999.90;;;;;;;12.23;91.07;101604.94;10525134;28;20044;-72
2024/03/22 08:53:40;;;;;;;1999.90;999.90;;;;;;;11.69;91.58;101629.41;10541149;28;20056;-72
2024/03/22 08:58:42;;;;;;;1999.90;999.90;;;;;;;12.02;91.24;101612.97;10540820;28;20101;-72
2024/03/22 09:03:46;;;;;;;1999.90;999.90;;;;;;;11.98;90.52;101606.16;10540002;28;20056;-72
2024/03/22 09:08:47;;;;;;;1999.90;999.90;;;;;;;12.01;91.27;101603.38;10523631;28;20052;-73
2024/03/22 09:13:54;;;;;;;1999.90;999.90;;;;;;;12.03;90.64;101603.31;10540533;28;20492;-72
2024/03/22 09:18:56;;;;;;;1999.90;999.90;;;;;;;11.94;90.35;101611.66;10540235;28;20051;-72
2024/03/22 09:23:57;;;;;;;1999.90;999.90;;;;;;;11.97;91.17;101603.63;10540230;28;20056;-72
2024/03/22 09:28:59;;;;;;;1999.90;999.90;;;;;;;12.08;90.69;101604.75;10539078;28;20137;-73
2024/03/22 09:34:01;;;;;;;1999.90;999.90;;;;;;;11.82;91.17;101592.94;10539679;28;20101;-72
2024/03/22 09:39:03;;;;;;;1999.90;999.90;;;;;;;11.88;90.68;101590.03;10539410;28;20055;-72
2024/03/22 09:44:05;;;;;;;1999.90;999.90;;;;;;;11.84;91.34;101585.84;10539163;28;20558;-72
2024/03/22 09:49:07;;;;;;;1999.90;999.90;;;;;;;11.60;91.24;101587.91;10521962;28;20056;-73
2024/03/22 09:54:10;;;;;;;1999.90;999.90;;;;;;;11.97;91.31;101575.63;10538524;28;20052;-73
2024/03/22 09:59:11;;;;;;;1999.90;999.90;;;;;;;11.95;91.14;101587.94;10521777;28;20097;-72
2024/03/22 10:04:13;;;;;;;1999.90;999.90;;;;;;;11.93;91.58;101576.69;10521964;28;20067;-73
2024/03/22 10:09:15;;;;;;;1999.90;999.90;;;;;;;11.80;91.89;101581.69;10537593;28;20059;-72
2024/03/22 10:14:16;;;;;;;1999.90;999.90;;;;;;;11.83;91.79;101578.03;10537966;28;20048;-72
2024/03/22 10:19:18;;;;;;;1999.90;999.90;;;;;;;11.82;91.77;101581.63;10539049;28;20093;-72
2024/03/22 10:24:19;;;;;;;1999.90;999.90;;;;;;;11.61;92.32;101580.88;10537873;28;20056;-72
2024/03/22 10:29:22;;;;;;;1999.90;999.90;;;;;;;11.77;93.91;101578.34;10520557;28;20048;-73
2024/03/22 10:34:24;;;;;;;1999.90;999.90;;;;;;;11.90;91.18;101577.66;10520730;28;20056;-73
2024/03/22 10:39:27;;;;;;;1999.90;999.90;;;;;;;11.50;94.52;101574.41;10521063;28;20048;-72
2024/03/22 10:44:28;;;;;;;1999.90;999.90;;;;;;;11.59;94.38;101580.13;10521361;28;20105;-72
2024/03/22 10:49:34;;;;;;;1999.90;999.90;;;;;;;11.22;99.26;101587.97;10537019;28;20052;-72
2024/03/22 10:54:39;;;;;;;1999.90;999.90;;;;;;;11.47;100.00;101586.81;10527264;28;20052;-72
2024/03/22 10:59:42;;;;;;;1999.90;999.90;;;;;;;11.26;100.00;101579.06;10529551;28;20044;-72
2024/03/22 11:04:43;;;;;;;1999.90;999.90;;;;;;;11.42;100.00;101583.56;10527918;28;20401;-73
2024/03/22 11:09:52;;;;;;;1999.90;999.90;;;;;;;11.55;100.00;101576.81;10511550;28;20521;-72
2024/03/22 11:14:55;;;;;;;1999.90;999.90;;;;;;;11.20;100.00;101584.59;10544632;28;20428;-73
2024/03/22 11:19:56;;;;;;;1999.90;999.90;;;;;;;11.51;100.00;101581.31;10527534;28;20060;-72
2024/03/22 11:24:58;;;;;;;1999.90;999.90;;;;;;;10.93;100.00;101578.88;10544442;28;20505;-73
2024/03/22 11:30:00;;;;;;;1999.90;999.90;;;;;;;10.88;100.00;101573.84;10544095;28;20088;-72
2024/03/22 11:35:01;;;;;;;1999.90;999.90;;;;;;;11.03;100.00;101569.66;10527757;28;20070;-73
2024/03/22 11:40:05;;;;;;;1999.90;999.90;;;;;;;10.83;100.00;101580.22;10544122;28;20048;-73
2024/03/22 11:45:09;;;;;;;1999.90;999.90;;;;;;;10.38;100.00;101576.97;10543701;28;20056;-73
2024/03/22 11:50:13;;;;;;;1999.90;999.90;;;;;;;10.63;100.00;101565.41;10526182;28;20048;-72
2024/03/22 11:55:15;;;;;;;1999.90;999.90;;;;;;;10.68;100.00;101564.28;10543039;28;20493;-73
2024/03/22 12:00:18;;;;;;;1999.90;999.90;;;;;;;10.51;100.00;101570.28;10526624;28;20052;-72
2024/03/22 12:05:21;;;;;;;1999.90;999.90;;;;;;;10.53;100.00;101557.97;10524230;28;20059;-71
2024/03/22 12:10:22;;;;;;;1999.90;999.90;;;;;;;10.35;100.00;101562.25;10526163;28;20056;-72
2024/03/22 12:15:24;;;;;;;1999.90;999.90;;;;;;;10.70;100.00;101554.56;10542774;28;20055;-72
2024/03/22 12:20:25;;;;;;;1999.90;999.90;;;;;;;10.68;100.00;101548.56;10542424;28;20056;-71
2024/03/22 12:25:27;;;;;;;1999.90;999.90;;;;;;;10.90;100.00;101535.31;10542151;28;20056;-71
2024/03/22 12:30:28;;;;;;;1999.90;999.90;;;;;;;10.76;100.00;101529.88;10542741;28;20110;-72
2024/03/22 12:35:32;;;;;;;1999.90;999.90;;;;;;;10.82;100.00;101513.88;10525426;28;20075;-71
2024/03/22 12:40:34;;;;;;;1999.90;999.90;;;;;;;11.33;100.00;101514.06;10525393;28;20048;-71
2024/03/22 12:45:36;;;;;;;1999.90;999.90;;;;;;;11.15;100.00;101495.69;10523783;28;20575;-71
2024/03/22 12:50:37;;;;;;;1999.90;999.90;;;;;;;10.99;100.00;101481.63;10541294;28;20056;-70
2024/03/22 12:55:39;;;;;;;1999.90;999.90;;;;;;;11.27;100.00;101481.13;10524464;28;20048;-70
2024/03/22 13:00:40;;;;;;;1999.90;999.90;;;;;;;10.84;100.00;101482.38;10540309;28;20382;-71
2024/03/22 13:05:42;;;;;;;1999.90;999.90;;;;;;;10.92;100.00;101475.84;10524405;28;20047;-70
2024/03/22 13:10:44;;;;;;;1999.90;999.90;;;;;;;10.96;100.00;101477.41;10540681;28;20113;-70
2024/03/22 13:15:46;;;;;;;1999.90;999.90;;;;;;;11.19;100.00;101462.31;10522750;28;20406;-70
2024/03/22 13:20:48;;;;;;;1999.90;999.90;;;;;;;11.09;100.00;101461.06;10539624;28;20059;-70
2024/03/22 13:25:49;;;;;;;1999.90;999.90;;;;;;;10.69;100.00;101469.09;10539458;28;20105;-71
2024/03/22 13:31:00;;;;;;;1999.90;999.90;;;;;;;10.75;100.00;101452.22;10539743;28;20115;-70
2024/03/22 13:36:02;;;;;;;1999.90;999.90;;;;;;;10.84;100.00;101456.16;10522551;28;20051;-70
2024/03/22 13:41:05;;;;;;;1999.90;999.90;;;;;;;10.67;100.00;101454.34;10508442;22;20059;-70
2024/03/22 13:46:07;;;;;;;1999.90;999.90;;;;;;;10.87;100.00;101442.94;10496962;28;20053;-70
2024/03/22 13:51:09;;;;;;;1999.90;999.90;;;;;;;10.86;100.00;101435.97;10496931;28;20044;-70
2024/03/22 13:56:10;;;;;;;1999.90;999.90;;;;;;;10.68;100.00;101429.88;10496587;28;20048;-70
2024/03/22 14:01:11;;;;;;;1999.90;999.90;;;;;;;10.66;100.00;101434.31;10496759;28;20065;-69
2024/03/22 14:06:13;;;;;;;1999.90;999.90;;;;;;;10.72;100.00;101428.78;10495726;28;20408;-70
2024/03/22 14:11:14;;;;;;;1999.90;999.90;;;;;;;10.59;100.00;101425.91;10479727;28;20056;-70
2024/03/22 14:16:16;;;;;;;1999.90;999.90;;;;;;;10.62;100.00;101427.53;10496210;28;20053;-71
2024/03/22 14:21:19;;;;;;;1999.90;999.90;;;;;;;10.46;100.00;101420.41;10495565;28;20505;-72
2024/03/22 14:26:21;;;;;;;1999.90;999.90;;;;;;;10.25;100.00;101413.53;10478280;28;20060;-71
2024/03/22 14:31:22;;;;;;;1999.90;999.90;;;;;;;10.21;100.00;101397.97;10479557;28;20067;-70
2024/03/22 14:36:24;;;;;;;1999.90;999.90;;;;;;;10.72;100.00;101386.88;10496386;28;20049;-70
2024/03/22 14:41:25;;;;;;;1999.90;999.90;;;;;;;10.78;100.00;101384.81;10495552;28;20056;-70
2024/03/22 14:46:28;;;;;;;1999.90;999.90;;;;;;;10.97;100.00;101376.88;10495965;28;20049;-70
2024/03/22 14:51:30;;;;;;;1999.90;999.90;;;;;;;11.18;100.00;101375.91;10495776;28;20052;-70
2024/03/22 14:56:31;;;;;;;1999.90;999.90;;;;;;;10.91;100.00;101369.38;10495620;28;20052;-70
2024/03/22 15:01:35;;;;;;;1999.90;999.90;;;;;;;11.03;100.00;101370.53;10495579;28;20063;-70
2024/03/22 15:06:36;;;;;;;1999.90;999.90;;;;;;;10.90;100.00;101358.97;10496041;28;20057;-70
2024/03/22 15:11:38;;;;;;;1999.90;999.90;;;;;;;10.47;100.00;101366.28;10478946;28;20063;-70
2024/03/22 15:16:42;;;;;;;1999.90;999.90;;;;;;;10.65;100.00;101372.41;10495433;28;20048;-70
2024/03/22 15:21:43;;;;;;;1999.90;999.90;;;;;;;10.36;100.00;101364.19;10478619;28;20390;-70
2024/03/22 15:26:44;;;;;;;1999.90;999.90;;;;;;;10.35;100.00;101355.47;10495023;28;20056;-70
2024/03/22 15:31:46;;;;;;;1999.90;999.90;;;;;;;10.55;100.00;101346.66;10495210;28;20534;-70
2024/03/22 15:36:47;;;;;;;1999.90;999.90;;;;;;;10.37;100.00;101340.56;10495892;28;20059;-70
2024/03/22 15:41:48;;;;;;;1999.90;999.90;;;;;;;10.63;100.00;101330.59;10486179;28;20052;-71
2024/03/22 15:46:50;;;;;;;1999.90;999.90;;;;;;;10.45;100.00;101327.06;10501733;28;20055;-71
2024/03/22 15:51:52;;;;;;;1999.90;999.90;;;;;;;10.33;100.00;101332.91;10501951;28;20052;-70
2024/03/22 15:56:53;;;;;;;1999.90;999.90;;;;;;;10.31;100.00;101330.34;10501737;28;20049;-70
2024/03/22 16:01:55;;;;;;;1999.90;999.90;;;;;;;10.09;100.00;101329.66;10501099;28;20598;-70
2024/03/22 16:06:56;;;;;;;1999.90;999.90;;;;;;;10.21;100.00;101339.53;10500567;28;20056;-70
2024/03/22 16:11:58;;;;;;;1999.90;999.90;;;;;;;10.17;100.00;101327.50;10483460;28;20455;-70
2024/03/22 16:16:59;;;;;;;1999.90;999.90;;;;;;;10.22;100.00;101318.53;10467664;28;20048;-70
2024/03/22 16:22:01;;;;;;;1999.90;999.90;;;;;;;9.80;100.00;101316.16;10500628;28;20052;-70
2024/03/22 16:27:02;;;;;;;1999.90;999.90;;;;;;;10.06;100.00;101314.94;10500416;28;20044;-70
2024/03/22 16:32:05;;;;;;;1999.90;999.90;;;;;;;10.01;100.00;101309.09;10500271;28;20060;-70
2024/03/22 16:37:07;;;;;;;1999.90;999.90;;;;;;;9.93;100.00;101312.03;10500093;28;20057;-70
2024/03/22 16:42:09;;;;;;;1999.90;999.90;;;;;;;10.02;100.00;101306.41;10499516;28;20512;-70
2024/03/22 16:47:10;;;;;;;1999.90;999.90;;;;;;;9.93;100.00;101298.97;10499014;28;20052;-71
2024/03/22 16:52:12;;;;;;;1999.90;999.90;;;;;;;9.85;100.00;101303.69;10498625;28;20053;-70
2024/03/22 16:57:13;;;;;;;1999.90;999.90;;;;;;;9.83;100.00;101300.31;10499408;28;20040;-70
2024/03/22 17:02:16;;;;;;;1999.90;999.90;;;;;;;9.76;100.00;101307.59;10498447;28;20416;-71
2024/03/22 17:07:17;;;;;;;1999.90;999.90;;;;;;;9.84;100.00;101304.63;10481312;28;20048;-70
2024/03/22 17:12:18;;;;;;;1999.90;999.90;;;;;;;9.52;100.00;101320.03;10498634;28;20067;-71
2024/03/22 17:17:23;;;;;;;1999.90;999.90;;;;;;;9.77;100.00;101309.31;10498359;28;20098;-71
2024/03/22 17:22:24;;;;;;;1999.90;999.90;;;;;;;9.67;100.00;101306.25;10498523;28;20404;-70
2024/03/22 17:27:26;;;;;;;1999.90;999.90;;;;;;;9.54;100.00;101299.03;10481200;28;20049;-71
2024/03/22 17:32:27;;;;;;;1999.90;999.90;;;;;;;9.56;100.00;101311.09;10497113;28;20090;-70
2024/03/22 17:37:29;;;;;;;1999.90;999.90;;;;;;;9.44;100.00;101309.91;10481110;28;20056;-70
2024/03/22 17:42:31;;;;;;;1999.90;999.90;;;;;;;9.33;100.00;101303.44;10495305;28;20051;-70
2024/03/22 17:47:33;;;;;;;1999.90;999.90;;;;;;;9.33;100.00;101300.84;10495958;28;20041;-71
2024/03/22 17:52:34;;;;;;;1999.90;999.90;;;;;;;9.34;100.00;101307.78;10479063;28;20110;-71
2024/03/22 17:57:35;;;;;;;1999.90;999.90;;;;;;;9.16;100.00;101296.34;10495740;28;20044;-71
2024/03/22 18:02:37;;;;;;;1999.90;999.90;;;;;;;9.13;100.00;101289.50;10477362;28;20063;-70
2024/03/22 18:07:38;;;;;;;1999.90;999.90;;;;;;;9.09;100.00;101288.81;10494952;28;20040;-70
2024/03/22 18:12:39;;;;;;;1999.90;999.90;;;;;;;9.06;100.00;101281.09;10495579;28;20060;-70
2024/03/22 18:17:41;;;;;;;1999.90;999.90;;;;;;;8.72;100.00;101274.69;10493488;28;20508;-70
2024/03/22 18:22:42;;;;;;;1999.90;999.90;;;;;;;8.89;100.00;101271.38;10494060;28;20053;-70
2024/03/22 18:27:44;;;;;;;1999.90;999.90;;;;;;;8.99;100.00;101265.72;10493613;28;20486;-70
2024/03/22 18:32:45;;;;;;;1999.90;999.90;;;;;;;9.07;100.00;101268.88;10493949;28;20591;-70
2024/03/22 18:37:47;;;;;;;1999.90;999.90;;;;;;;8.75;100.00;101260.66;10453441;28;1173041;-69
2024/03/22 18:42:48;;;;;;;1999.90;999.90;;;;;;;8.74;100.00;101261.56;10495354;28;20504;-70
2024/03/22 18:47:49;;;;;;;1999.90;999.90;;;;;;;8.79;100.00;101263.97;10495552;28;20401;-69
2024/03/22 18:52:51;;;;;;;1999.90;999.90;;;;;;;8.49;100.00;101260.00;10495297;28;20417;-70
2024/03/22 18:57:53;;;;;;;1999.90;999.90;;;;;;;8.66;100.00;101264.50;10495664;28;20048;-70
2024/03/22 19:02:56;;;;;;;1999.90;999.90;;;;;;;8.87;100.00;101267.13;10495132;28;20088;-70
2024/03/22 19:07:58;;;;;;;1999.90;999.90;;;;;;;8.92;100.00;101270.38;10495235;28;20056;-70
2024/03/22 19:13:00;;;;;;;1999.90;999.90;;;;;;;8.70;100.00;101246.94;10498291;28;20106;-70
2024/03/22 19:18:02;;;;;;;1999.90;999.90;;;;;;;8.89;100.00;101257.44;10503251;28;20055;-70
2024/03/22 19:23:04;;;;;;;1999.90;999.90;;;;;;;8.85;100.00;101248.91;10486415;28;20052;-69
2024/03/22 19:28:09;;;;;;;1999.90;999.90;;;;;;;8.80;100.00;101237.81;10501684;28;20102;-69
2024/03/22 19:33:10;;;;;;;1999.90;999.90;;;;;;;8.55;100.00;101230.16;10485426;28;20053;-69
2024/03/22 19:38:12;;;;;;;1999.90;999.90;;;;;;;8.69;100.00;101229.56;10501785;28;20103;-69
2024/03/22 19:43:13;;;;;;;1999.90;999.90;;;;;;;8.58;100.00;101223.97;10501900;28;20052;-70
2024/03/22 19:48:15;;;;;;;1999.90;999.90;;;;;;;8.96;100.00;101218.84;10501538;28;20048;-69
2024/03/22 19:53:16;;;;;;;1999.90;999.90;;;;;;;8.96;100.00;101224.06;10501712;28;20051;-69
2024/03/22 19:58:17;;;;;;;1999.90;999.90;;;;;;;8.78;100.00;101217.91;10500751;28;20485;-69
2024/03/22 20:03:19;;;;;;;1999.90;999.90;;;;;;;8.87;100.00;101222.72;10500759;28;20052;-69
2024/03/22 20:08:20;;;;;;;1999.90;999.90;;;;;;;8.53;100.00;101216.34;10500838;28;20070;-69
2024/03/22 20:13:22;;;;;;;1999.90;999.90;;;;;;;8.65;100.00;101218.41;10500658;28;20064;-69
2024/03/22 20:18:25;;;;;;;1999.90;999.90;;;;;;;8.67;100.00;101218.34;10500750;28;20052;-69
2024/03/22 20:23:26;;;;;;;1999.90;999.90;;;;;;;8.64;100.00;101214.13;10499720;28;20056;-69
2024/03/22 20:28:27;;;;;;;1999.90;999.90;;;;;;;8.50;100.00;101206.88;10500107;28;20105;-69
2024/03/22 20:33:29;;;;;;;1999.90;999.90;;;;;;;8.19;100.00;101204.66;10499763;28;20063;-69
2024/03/22 20:38:31;;;;;;;1999.90;999.90;;;;;;;8.60;100.00;101201.28;10499803;28;20048;-69
2024/03/22 20:43:33;;;;;;;1999.90;999.90;;;;;;;8.66;100.00;101201.84;10498773;28;20489;-69
2024/03/22 20:48:36;;;;;;;1999.90;999.90;;;;;;;8.56;100.00;101203.16;10499041;28;20048;-69
2024/03/22 20:53:38;;;;;;;1999.90;999.90;;;;;;;8.50;100.00;101192.97;10499643;28;20052;-69
2024/03/22 20:58:41;;;;;;;1999.90;999.90;;;;;;;8.29;100.00;101187.72;10498992;28;20048;-68
2024/03/22 21:03:43;;;;;;;1999.90;999.90;;;;;;;8.37;100.00;101185.63;10498525;28;20057;-69
2024/03/22 21:08:45;;;;;;;1999.90;999.90;;;;;;;8.50;100.00;101185.16;10481469;28;20064;-68
2024/03/22 21:13:48;;;;;;;1999.90;999.90;;;;;;;8.62;100.00;101171.56;10498390;28;20513;-69
2024/03/22 21:18:50;;;;;;;1999.90;999.90;;;;;;;8.55;100.00;101173.59;10498421;28;20075;-69
2024/03/22 21:23:52;;;;;;;1999.90;999.90;;;;;;;8.31;100.00;101165.00;10498629;28;20059;-68
2024/03/22 21:28:55;;;;;;;1999.90;999.90;;;;;;;8.57;100.00;101160.47;10497302;28;20052;-69
2024/03/22 21:33:57;;;;;;;1999.90;999.90;;;;;;;8.29;100.00;101158.19;10497982;28;20056;-69
2024/03/22 21:38:59;;;;;;;1999.90;999.90;;;;;;;8.28;100.00;101157.31;10496464;28;20520;-69